createdAt,value
2018-01-14T00:01:15.776Z,12.95
2018-01-14T00:03:43.228Z,12.95
2018-01-14T00:06:10.662Z,13.00
2018-01-14T00:08:38.852Z,12.63
2018-01-14T00:11:07.076Z,12.57
2018-01-14T00:13:34.495Z,14.15
2018-01-14T00:16:01.940Z,12.25
2018-01-14T00:18:29.380Z,12.60
2018-01-14T00:20:56.844Z,13.23
2018-01-14T00:23:24.268Z,13.68
2018-01-14T00:25:51.700Z,12.68
2018-01-14T00:28:19.119Z,13.32
2018-01-14T00:30:47.339Z,13.13
2018-01-14T00:33:15.672Z,13.05
2018-01-14T00:35:43.099Z,13.70
2018-01-14T00:38:10.580Z,12.52
2018-01-14T00:40:38.000Z,13.15
2018-01-14T00:43:07.145Z,12.52
2018-01-14T00:45:34.576Z,12.70
2018-01-14T00:48:01.995Z,12.30
2018-01-14T00:50:29.456Z,12.45
2018-01-14T00:52:57.847Z,13.80
2018-01-14T00:55:25.275Z,12.65
2018-01-14T00:57:52.890Z,13.02
2018-01-14T01:00:20.320Z,12.85
2018-01-14T01:02:48.547Z,12.75
2018-01-14T01:05:15.980Z,12.00
2018-01-14T01:07:44.172Z,12.68
2018-01-14T01:10:12.404Z,12.75
2018-01-14T01:12:39.829Z,12.30
2018-01-14T01:15:08.048Z,12.85
2018-01-14T01:17:35.467Z,13.23
2018-01-14T01:20:03.031Z,12.80
2018-01-14T01:22:30.411Z,12.45
2018-01-14T01:24:57.835Z,12.73
2018-01-14T01:27:25.295Z,12.48
2018-01-14T01:29:52.724Z,11.90
2018-01-14T01:32:20.952Z,12.85
2018-01-14T01:34:48.380Z,12.77
2018-01-14T01:37:16.563Z,13.20
2018-01-14T01:39:44.068Z,13.25
2018-01-14T01:42:11.548Z,12.18
2018-01-14T01:44:39.008Z,13.43
2018-01-14T01:47:06.484Z,12.52
2018-01-14T01:49:33.907Z,12.98
2018-01-14T01:52:01.526Z,12.02
2018-01-14T01:54:29.692Z,12.02
2018-01-14T01:56:57.888Z,12.35
2018-01-14T01:59:25.372Z,12.00
2018-01-14T02:01:52.802Z,13.02
2018-01-14T02:04:20.307Z,12.23
2018-01-14T02:06:47.735Z,13.88
2018-01-14T02:09:15.156Z,13.18
2018-01-14T02:11:42.620Z,12.82
2018-01-14T02:14:10.044Z,12.10
2018-01-14T02:16:37.475Z,13.65
2018-01-14T02:19:04.910Z,13.15
2018-01-14T02:21:33.116Z,12.43
2018-01-14T02:24:00.540Z,13.57
2018-01-14T02:26:28.052Z,13.95
2018-01-14T02:28:55.467Z,14.35
2018-01-14T02:31:22.904Z,14.05
2018-01-14T02:33:50.327Z,13.52
2018-01-14T02:36:18.543Z,14.18
2018-01-14T02:38:45.963Z,13.93
2018-01-14T02:41:13.395Z,13.82
2018-01-14T02:43:40.811Z,13.40
2018-01-14T02:46:09.002Z,14.00
2018-01-14T02:48:37.194Z,13.62
2018-01-14T02:51:05.403Z,14.90
2018-01-14T02:53:32.819Z,14.43
2018-01-14T02:56:00.349Z,14.13
2018-01-14T02:58:28.516Z,13.45
2018-01-14T03:00:56.719Z,15.13
2018-01-14T03:03:24.197Z,14.02
2018-01-14T03:05:51.663Z,14.05
2018-01-14T03:08:19.127Z,15.95
2018-01-14T03:10:46.558Z,14.85
2018-01-14T03:13:14.958Z,14.98
2018-01-14T03:15:43.159Z,15.75
2018-01-14T03:18:11.347Z,14.93
2018-01-14T03:20:39.558Z,15.43
2018-01-14T03:23:07.883Z,16.50
2018-01-14T03:25:35.415Z,15.05
2018-01-14T03:28:02.831Z,15.32
2018-01-14T03:30:30.259Z,16.62
2018-01-14T03:32:58.744Z,15.63
2018-01-14T03:35:26.224Z,15.73
2018-01-14T03:37:53.684Z,15.00
2018-01-14T03:40:21.106Z,16.55
2018-01-14T03:42:48.716Z,15.20
2018-01-14T03:45:16.134Z,17.20
2018-01-14T03:47:43.668Z,16.20
2018-01-14T03:50:11.135Z,17.15
2018-01-14T03:52:38.555Z,17.10
2018-01-14T03:55:06.083Z,17.05
2018-01-14T03:57:33.511Z,17.05
2018-01-14T04:00:01.741Z,17.00
2018-01-14T04:02:29.207Z,17.73
2018-01-14T04:04:56.632Z,17.52
2018-01-14T04:07:24.243Z,17.75
2018-01-14T04:09:51.659Z,17.98
2018-01-14T04:12:19.179Z,18.25
2018-01-14T04:14:46.651Z,17.83
2018-01-14T04:17:14.087Z,16.85
2018-01-14T04:19:41.495Z,19.05
2018-01-14T04:22:08.927Z,17.98
2018-01-14T04:24:37.142Z,19.00
2018-01-14T04:27:04.571Z,18.15
2018-01-14T04:29:31.986Z,18.45
2018-01-14T04:31:59.415Z,18.52
2018-01-14T04:34:26.835Z,18.70
2018-01-14T04:36:54.287Z,19.33
2018-01-14T04:39:21.765Z,19.62
2018-01-14T04:41:49.189Z,18.60
2018-01-14T04:44:16.699Z,20.10
2018-01-14T04:46:44.132Z,19.08
2018-01-14T04:49:11.635Z,19.77
2018-01-14T04:51:39.059Z,19.52
2018-01-14T04:54:06.605Z,21.08
2018-01-14T04:56:34.052Z,19.92
2018-01-14T04:59:01.519Z,20.45
2018-01-14T05:01:29.692Z,19.60
2018-01-14T05:03:57.875Z,19.15
2018-01-14T05:06:26.070Z,20.42
2018-01-14T05:08:53.551Z,20.60
2018-01-14T05:11:20.979Z,19.10
2018-01-14T05:13:48.403Z,21.33
2018-01-14T05:16:15.831Z,19.60
2018-01-14T05:18:44.028Z,20.10
2018-01-14T05:21:11.451Z,20.48
2018-01-14T05:23:38.871Z,20.00
2018-01-14T05:26:06.299Z,20.58
2018-01-14T05:28:33.720Z,20.90
2018-01-14T05:31:01.147Z,20.00
2018-01-14T05:33:28.660Z,20.40
2018-01-14T05:35:56.086Z,20.83
2018-01-14T05:38:24.271Z,20.35
2018-01-14T05:40:51.695Z,21.05
2018-01-14T05:43:19.122Z,20.62
2018-01-14T05:45:47.338Z,20.75
2018-01-14T05:48:14.751Z,21.08
2018-01-14T05:50:42.176Z,19.60
2018-01-14T05:53:09.652Z,19.85
2018-01-14T05:55:37.116Z,20.23
2018-01-14T05:58:04.547Z,21.62
2018-01-14T06:00:31.963Z,20.12
2018-01-14T06:03:00.547Z,20.35
2018-01-14T06:05:28.020Z,20.35
2018-01-14T06:07:55.447Z,20.23
2018-01-14T06:10:22.923Z,19.73
2018-01-14T06:12:51.141Z,20.92
2018-01-14T06:15:18.619Z,19.67
2018-01-14T06:17:46.187Z,19.10
2018-01-14T06:20:13.618Z,20.15
2018-01-14T06:22:41.039Z,20.33
2018-01-14T06:25:08.459Z,19.55
2018-01-14T06:27:36.658Z,20.48
2018-01-14T06:30:04.871Z,20.10
2018-01-14T06:32:32.304Z,19.20
2018-01-14T06:34:59.720Z,18.67
2018-01-14T06:37:27.179Z,19.17
2018-01-14T06:39:54.639Z,20.20
2018-01-14T06:42:22.126Z,19.02
2018-01-14T06:44:49.580Z,20.02
2018-01-14T06:47:17.028Z,19.10
2018-01-14T06:49:45.235Z,19.55
2018-01-14T06:52:12.728Z,18.55
2018-01-14T06:54:40.185Z,18.95
2018-01-14T06:57:07.615Z,19.87
2018-01-14T06:59:35.036Z,19.08
2018-01-14T07:02:02.484Z,19.20
2018-01-14T07:04:29.960Z,18.83
2018-01-14T07:06:57.383Z,19.45
2018-01-14T07:09:24.807Z,19.83
2018-01-14T07:11:52.235Z,17.80
2018-01-14T07:14:20.649Z,18.52
2018-01-14T07:16:48.079Z,19.05
2018-01-14T07:19:15.595Z,20.30
2018-01-14T07:21:43.064Z,19.10
2018-01-14T07:24:10.531Z,18.80
2018-01-14T07:26:37.955Z,19.35
2018-01-14T07:29:05.471Z,19.35
2018-01-14T07:31:32.919Z,17.85
2018-01-14T07:34:01.139Z,18.92
2018-01-14T07:36:28.620Z,18.02
2018-01-14T07:38:56.071Z,17.80
2018-01-14T07:41:23.516Z,18.80
2018-01-14T07:43:51.744Z,18.20
2018-01-14T07:46:19.175Z,18.60
2018-01-14T07:48:47.363Z,18.65
2018-01-14T07:51:15.567Z,17.98
2018-01-14T07:53:43.042Z,18.17
2018-01-14T07:56:10.463Z,18.45
2018-01-14T07:58:37.976Z,19.40
2018-01-14T08:01:05.403Z,18.95
2018-01-14T08:03:32.830Z,18.30
2018-01-14T08:06:00.244Z,17.87
2018-01-14T08:08:27.751Z,17.90
2018-01-14T08:10:55.167Z,17.90
2018-01-14T08:13:22.602Z,18.80
2018-01-14T08:15:50.063Z,17.75
2018-01-14T08:18:17.487Z,17.67
2018-01-14T08:20:44.912Z,17.50
2018-01-14T08:23:12.366Z,17.58
2018-01-14T08:25:39.838Z,16.95
2018-01-14T08:28:07.308Z,16.80
2018-01-14T08:30:34.727Z,17.05
2018-01-14T08:33:03.176Z,17.12
2018-01-14T08:35:30.753Z,17.70
2018-01-14T08:37:58.212Z,17.33
2018-01-14T08:40:25.635Z,17.50
2018-01-14T08:42:53.067Z,16.73
2018-01-14T08:45:20.510Z,16.45
2018-01-14T08:47:47.984Z,16.90
2018-01-14T08:50:15.459Z,16.48
2018-01-14T08:52:42.931Z,17.23
2018-01-14T08:55:10.351Z,17.08
2018-01-14T08:57:37.777Z,16.35
2018-01-14T09:00:05.235Z,16.62
2018-01-14T09:02:32.664Z,17.10
2018-01-14T09:05:00.175Z,15.68
2018-01-14T09:07:27.645Z,15.85
2018-01-14T09:09:55.119Z,15.93
2018-01-14T09:12:22.543Z,16.42
2018-01-14T09:14:49.967Z,15.57
2018-01-14T09:17:17.391Z,14.95
2018-01-14T09:19:45.606Z,15.52
2018-01-14T09:22:13.036Z,15.52
2018-01-14T09:24:40.454Z,14.38
2018-01-14T09:27:07.883Z,15.23
2018-01-14T09:29:36.100Z,14.13
2018-01-14T09:32:03.531Z,13.88
2018-01-14T09:34:31.042Z,15.43
2018-01-14T09:36:58.467Z,14.32
2018-01-14T09:39:25.987Z,14.10
2018-01-14T09:41:53.411Z,14.02
2018-01-14T09:44:20.835Z,14.32
2018-01-14T09:46:48.598Z,12.82
2018-01-14T09:49:16.767Z,14.45
2018-01-14T09:51:44.183Z,13.00
2018-01-14T09:54:12.432Z,16.08
2018-01-14T09:56:39.909Z,28.35
2018-01-14T09:59:07.333Z,16.25
2018-01-14T10:01:34.851Z,15.38
2018-01-14T10:04:02.277Z,14.63
2018-01-14T10:06:29.787Z,13.35
2018-01-14T10:08:57.260Z,13.27
2018-01-14T10:11:24.679Z,13.95
2018-01-14T10:13:52.175Z,13.68
2018-01-14T10:16:20.355Z,12.25
2018-01-14T10:18:48.556Z,13.52
2018-01-14T10:21:16.147Z,12.75
2018-01-14T10:23:43.571Z,13.35
2018-01-14T10:26:10.987Z,13.80
2018-01-14T10:28:38.450Z,13.98
2018-01-14T10:31:05.863Z,12.68
2018-01-14T10:33:33.288Z,12.95
2018-01-14T10:36:00.859Z,12.32
2018-01-14T10:38:28.282Z,11.93
2018-01-14T10:40:55.698Z,12.23
2018-01-14T10:43:23.147Z,11.75
2018-01-14T10:45:50.634Z,11.95
2018-01-14T10:48:18.818Z,12.60
2018-01-14T10:50:46.231Z,13.52
2018-01-14T10:53:15.401Z,13.38
2018-01-14T10:55:42.879Z,15.38
2018-01-14T10:58:10.339Z,12.90
2018-01-14T11:00:43.385Z,12.40
2018-01-14T11:03:10.811Z,11.95
2018-01-14T11:05:38.275Z,13.25
2018-01-14T11:08:05.751Z,12.05
2018-01-14T11:10:33.220Z,11.75
2018-01-14T11:13:01.615Z,12.20
2018-01-14T11:15:29.037Z,11.80
2018-01-14T11:17:56.468Z,11.38
2018-01-14T11:20:23.920Z,11.00
2018-01-14T11:22:51.347Z,11.65
2018-01-14T11:25:18.763Z,11.70
2018-01-14T11:27:46.233Z,12.23
2018-01-14T11:30:13.643Z,12.15
2018-01-14T11:32:41.219Z,12.63
2018-01-14T11:35:08.634Z,12.45
2018-01-14T11:37:36.067Z,12.35
2018-01-14T11:40:05.043Z,10.48
2018-01-14T11:42:32.471Z,11.23
2018-01-14T11:44:59.889Z,11.30
2018-01-14T11:47:27.303Z,11.77
2018-01-14T11:49:54.735Z,11.60
2018-01-14T11:52:22.247Z,10.90
2018-01-14T11:54:49.737Z,10.70
2018-01-14T11:57:17.355Z,11.52
2018-01-14T11:59:44.872Z,11.50
2018-01-14T12:02:12.296Z,11.45
2018-01-14T12:04:39.728Z,10.90
2018-01-14T12:07:07.145Z,11.60
2018-01-14T12:09:35.374Z,11.45
2018-01-14T12:12:02.800Z,11.50
2018-01-14T12:14:31.016Z,10.77
2018-01-14T12:16:58.499Z,10.48
2018-01-14T12:19:25.955Z,12.45
2018-01-14T12:21:53.371Z,12.10
2018-01-14T12:24:20.895Z,11.12
2018-01-14T12:26:48.320Z,11.65
2018-01-14T12:29:15.759Z,9.85
2018-01-14T12:31:43.203Z,10.52
2018-01-14T12:37:12.192Z,11.35
2018-01-14T12:39:39.624Z,11.82
2018-01-14T12:42:07.082Z,10.38
2018-01-14T12:44:34.506Z,10.68
2018-01-14T12:47:02.046Z,11.25
2018-01-14T12:49:29.470Z,9.68
2018-01-14T12:51:57.679Z,10.88
2018-01-14T12:54:25.164Z,10.95
2018-01-14T12:56:52.591Z,10.70
2018-01-14T12:59:20.023Z,11.07
2018-01-14T13:01:47.559Z,11.55
2018-01-14T13:04:15.216Z,10.20
2018-01-14T13:06:43.424Z,10.25
2018-01-14T13:09:11.139Z,10.77
2018-01-14T13:11:38.600Z,10.90
2018-01-14T13:14:06.851Z,10.05
2018-01-14T13:16:34.319Z,11.00
2018-01-14T13:19:02.491Z,10.43
2018-01-14T13:21:30.674Z,10.35
2018-01-14T13:23:58.099Z,9.80
2018-01-14T13:26:25.518Z,10.25
2018-01-14T13:28:53.707Z,9.88
2018-01-14T13:31:21.119Z,9.75
2018-01-14T13:33:48.559Z,10.02
2018-01-14T13:36:15.979Z,10.07
2018-01-14T13:38:44.287Z,9.15
2018-01-14T13:41:12.508Z,9.13
2018-01-14T13:43:39.926Z,8.70
2018-01-14T13:46:07.339Z,8.18
2018-01-14T13:48:34.763Z,8.27
2018-01-14T13:51:02.276Z,8.60
2018-01-14T13:53:29.748Z,8.98
2018-01-14T13:55:57.171Z,9.27
2018-01-14T13:58:24.595Z,9.63
2018-01-14T14:00:52.011Z,9.57
2018-01-14T14:03:19.436Z,9.07
2018-01-14T14:05:46.856Z,9.32
2018-01-14T14:08:14.367Z,9.15
2018-01-14T14:10:41.791Z,9.20
2018-01-14T14:13:10.226Z,9.25
2018-01-14T14:15:37.651Z,9.23
2018-01-14T14:18:05.070Z,8.90
2018-01-14T14:20:32.491Z,9.52
2018-01-14T14:22:59.924Z,9.23
2018-01-14T14:25:27.339Z,9.88
2018-01-14T14:27:55.631Z,9.10
2018-01-14T14:30:23.823Z,9.40
2018-01-14T14:32:52.032Z,8.85
2018-01-14T14:35:19.455Z,9.48
2018-01-14T14:37:46.991Z,8.63
2018-01-14T14:40:14.439Z,8.85
2018-01-14T14:42:41.855Z,8.82
2018-01-14T14:45:09.383Z,8.98
2018-01-14T14:47:36.800Z,9.10
2018-01-14T14:50:04.227Z,9.88
2018-01-14T14:52:31.644Z,9.43
2018-01-14T14:54:59.071Z,9.75
2018-01-14T14:57:26.489Z,10.02
2018-01-14T14:59:54.680Z,10.07
2018-01-14T15:02:22.871Z,11.20
2018-01-14T15:04:51.059Z,12.02
2018-01-14T15:07:19.252Z,11.02
2018-01-14T15:09:47.457Z,9.63
2018-01-14T15:12:14.879Z,10.18
2018-01-14T15:14:42.299Z,9.02
2018-01-14T15:17:09.768Z,10.77
2018-01-14T15:19:37.190Z,11.05
2018-01-14T15:22:04.635Z,11.15
2018-01-14T15:24:32.047Z,9.35
2018-01-14T15:27:00.260Z,10.10
2018-01-14T15:29:28.443Z,10.52
2018-01-14T15:31:55.868Z,10.73
2018-01-14T15:34:23.390Z,10.30
2018-01-14T15:36:50.802Z,8.80
2018-01-14T15:39:18.237Z,10.15
2018-01-14T15:41:45.650Z,9.60
2018-01-14T15:44:13.159Z,9.88
2018-01-14T15:46:40.584Z,9.15
2018-01-14T15:49:08.100Z,9.02
2018-01-14T15:51:35.521Z,8.98
2018-01-14T15:54:02.939Z,9.38
2018-01-14T15:56:30.369Z,9.25
2018-01-14T15:58:57.792Z,9.50
2018-01-14T16:01:25.208Z,9.40
2018-01-14T16:03:52.631Z,8.80
2018-01-14T16:06:20.083Z,10.05
2018-01-14T16:08:47.552Z,9.77
2018-01-14T16:11:15.027Z,8.65
2018-01-14T16:13:42.443Z,9.25
2018-01-14T16:16:10.635Z,9.07
2018-01-14T16:18:38.151Z,11.32
2018-01-14T16:21:05.580Z,12.73
2018-01-14T16:23:33.075Z,14.77
2018-01-14T16:26:00.504Z,15.52
2018-01-14T16:28:28.032Z,17.37
2018-01-14T16:30:55.464Z,15.85
2018-01-14T16:33:22.967Z,12.68
2018-01-14T16:35:50.392Z,11.07
2018-01-14T16:38:17.810Z,9.88
2018-01-14T16:40:45.228Z,10.70
2018-01-14T16:43:13.603Z,10.27
2018-01-14T16:45:41.027Z,11.45
2018-01-14T16:48:08.499Z,10.55
2018-01-14T16:50:35.971Z,16.50
2018-01-14T16:53:03.395Z,13.62
2018-01-14T16:55:30.907Z,14.00
2018-01-14T16:57:59.071Z,12.95
2018-01-14T17:00:27.270Z,13.88
2018-01-14T17:02:57.158Z,12.27
2018-01-14T17:05:24.579Z,12.15
2018-01-14T17:07:52.004Z,10.23
2018-01-14T17:10:19.427Z,10.30
2018-01-14T17:12:46.851Z,10.73
2018-01-14T17:15:14.274Z,9.30
2018-01-14T17:17:41.699Z,9.90
2018-01-14T17:20:09.907Z,8.88
2018-01-14T17:22:38.062Z,9.65
2018-01-14T17:25:05.492Z,9.93
2018-01-14T17:27:32.910Z,10.50
2018-01-14T17:30:01.107Z,10.30
2018-01-14T17:32:28.700Z,9.13
2018-01-14T17:34:56.167Z,10.23
2018-01-14T17:37:23.639Z,9.65
2018-01-14T17:39:51.071Z,11.35
2018-01-14T17:42:19.296Z,10.98
2018-01-14T17:44:46.762Z,11.77
2018-01-14T17:47:14.237Z,11.98
2018-01-14T17:49:41.703Z,13.25
2018-01-14T17:52:09.172Z,12.27
2018-01-14T17:54:36.600Z,15.50
2018-01-14T17:57:04.019Z,15.05
2018-01-14T17:59:31.447Z,15.93
2018-01-14T18:01:59.643Z,11.48
2018-01-14T18:04:27.831Z,11.02
2018-01-14T18:06:56.019Z,9.60
2018-01-14T18:09:24.240Z,9.65
2018-01-14T18:11:51.654Z,11.40
2018-01-14T18:14:19.167Z,9.55
2018-01-14T18:16:58.463Z,10.65
2018-01-14T18:19:25.895Z,10.55
2018-01-14T18:21:53.312Z,11.43
2018-01-14T18:24:20.737Z,11.12
2018-01-14T18:26:48.191Z,10.90
2018-01-14T18:29:15.662Z,11.27
2018-01-14T18:31:43.083Z,10.63
2018-01-14T18:34:10.595Z,9.73
2018-01-14T18:36:38.015Z,9.32
2018-01-14T18:39:05.436Z,10.00
2018-01-14T18:41:32.911Z,10.05
2018-01-14T18:44:00.387Z,8.93
2018-01-14T18:46:27.846Z,10.93
2018-01-14T18:48:55.259Z,10.98
2018-01-14T18:51:22.781Z,14.00
2018-01-14T18:53:50.199Z,14.87
2018-01-14T18:56:17.628Z,13.62
2018-01-14T18:58:45.066Z,12.20
2018-01-14T19:01:12.475Z,13.75
2018-01-14T19:03:39.903Z,13.75
2018-01-14T19:06:08.113Z,13.50
2018-01-14T19:08:35.545Z,11.68
2018-01-14T19:11:03.056Z,11.52
2018-01-14T19:13:30.554Z,10.27
2018-01-14T19:15:57.954Z,10.15
2018-01-14T19:18:25.460Z,9.95
2018-01-14T19:20:52.888Z,10.13
2018-01-14T19:23:20.299Z,9.73
2018-01-14T19:25:47.752Z,10.55
2018-01-14T19:28:15.959Z,10.13
2018-01-14T19:30:43.380Z,9.98
2018-01-14T19:33:11.789Z,9.95
2018-01-14T19:35:39.171Z,10.65
2018-01-14T19:38:06.587Z,10.98
2018-01-14T19:40:34.015Z,12.13
2018-01-14T19:43:02.351Z,11.70
2018-01-14T19:45:29.785Z,11.15
2018-01-14T19:47:57.250Z,11.18
2018-01-14T19:50:24.680Z,10.32
2018-01-14T19:52:52.090Z,10.55
2018-01-14T19:55:19.522Z,10.48
2018-01-14T19:57:47.707Z,10.90
2018-01-14T20:00:15.906Z,11.32
2018-01-14T20:02:43.319Z,11.27
2018-01-14T20:05:10.752Z,10.43
2018-01-14T20:07:38.940Z,9.43
2018-01-14T20:10:07.128Z,9.85
2018-01-14T20:12:34.552Z,11.07
2018-01-14T20:15:02.113Z,10.25
2018-01-14T20:17:29.547Z,10.25
2018-01-14T20:19:57.019Z,10.73
2018-01-14T20:22:24.640Z,11.20
2018-01-14T20:24:52.066Z,12.23
2018-01-14T20:27:19.537Z,12.05
2018-01-14T20:29:46.956Z,12.45
2018-01-14T20:32:14.383Z,11.25
2018-01-14T20:34:41.799Z,11.43
2018-01-14T20:37:09.314Z,11.00
2018-01-14T20:39:36.736Z,11.85
2018-01-14T20:42:04.251Z,12.68
2018-01-14T20:44:31.672Z,12.15
2018-01-14T20:47:00.627Z,13.05
2018-01-14T20:49:28.043Z,12.20
2018-01-14T20:51:56.233Z,14.05
2018-01-14T20:54:25.165Z,13.75
2018-01-14T20:56:53.476Z,13.93
2018-01-14T20:59:20.895Z,12.40
2018-01-14T21:01:48.327Z,12.77
2018-01-14T21:04:15.744Z,12.68
2018-01-14T21:06:43.927Z,11.75
2018-01-14T21:09:11.351Z,11.12
2018-01-14T21:11:38.799Z,10.43
2018-01-14T21:14:06.272Z,11.43
2018-01-14T21:16:34.429Z,10.10
2018-01-14T21:19:02.648Z,10.77
2018-01-14T21:21:30.116Z,10.60
2018-01-14T21:23:57.591Z,11.48
2018-01-14T21:26:25.012Z,11.65
2018-01-14T21:28:53.960Z,10.50
2018-01-14T21:31:21.385Z,10.73
2018-01-14T21:33:50.327Z,10.45
2018-01-14T21:36:17.747Z,11.48
2018-01-14T21:38:45.170Z,10.90
2018-01-14T21:41:12.586Z,11.85
2018-01-14T21:43:40.019Z,13.68
2018-01-14T21:46:07.439Z,11.95
2018-01-14T21:48:34.859Z,15.02
2018-01-14T21:51:02.280Z,15.18
2018-01-14T21:53:30.475Z,14.63
2018-01-14T21:55:58.687Z,14.30
2018-01-14T21:58:26.179Z,14.32
2018-01-14T22:00:53.734Z,14.80
2018-01-14T22:03:21.156Z,12.57
2018-01-14T22:05:48.567Z,12.98
2018-01-14T22:08:15.986Z,13.00
2018-01-14T22:10:43.415Z,11.20
2018-01-14T22:13:10.845Z,11.95
2018-01-14T22:15:39.039Z,11.55
2018-01-14T22:18:07.265Z,11.12
2018-01-14T22:20:35.415Z,10.98
2018-01-14T22:23:03.599Z,10.95
2018-01-14T22:25:31.787Z,11.48
2018-01-14T22:27:59.980Z,11.10
2018-01-14T22:30:28.181Z,10.68
2018-01-14T22:32:55.653Z,11.77
2018-01-14T22:35:23.083Z,11.57
2018-01-14T22:37:50.544Z,11.00
2018-01-14T22:40:17.935Z,11.43
2018-01-14T22:42:46.146Z,10.93
2018-01-14T22:45:13.570Z,10.75
2018-01-14T22:47:41.083Z,11.50
2018-01-14T22:50:08.552Z,11.30
2018-01-14T22:52:35.971Z,11.70
2018-01-14T22:55:03.411Z,12.37
2018-01-14T22:57:30.860Z,12.77
2018-01-14T22:59:58.291Z,12.00
2018-01-14T23:02:25.714Z,13.38
2018-01-14T23:04:53.147Z,11.63
2018-01-14T23:07:21.327Z,12.07
2018-01-14T23:09:49.520Z,12.30
2018-01-14T23:12:17.716Z,12.35
2018-01-14T23:14:50.764Z,12.23
2018-01-14T23:17:18.186Z,12.43
2018-01-14T23:19:47.555Z,13.62
2018-01-14T23:22:14.985Z,13.45
2018-01-14T23:24:42.404Z,13.00
2018-01-14T23:27:09.826Z,13.38
2018-01-14T23:29:37.255Z,13.80
2018-01-14T23:32:05.471Z,13.70
2018-01-14T23:34:32.895Z,13.90
2018-01-14T23:37:00.419Z,13.10
2018-01-14T23:39:27.884Z,13.52
2018-01-14T23:41:55.456Z,13.20
2018-01-14T23:44:22.879Z,14.02
2018-01-14T23:46:50.307Z,13.05
2018-01-14T23:49:17.771Z,13.77
2018-01-14T23:51:45.192Z,11.88
2018-01-14T23:54:12.702Z,13.48
2018-01-14T23:56:40.172Z,13.77
2018-01-14T23:59:07.587Z,13.52
